createdAt,value
2018-06-14T00:02:22.972Z,2.90
2018-06-14T00:04:51.070Z,3.00
2018-06-14T00:07:19.363Z,2.90
2018-06-14T00:09:47.692Z,3.07
2018-06-14T00:12:15.951Z,3.17
2018-06-14T00:14:44.264Z,3.30
2018-06-14T00:17:12.612Z,2.77
2018-06-14T00:19:40.903Z,2.93
2018-06-14T00:22:09.240Z,2.57
2018-06-14T00:24:37.572Z,2.77
2018-06-14T00:27:05.876Z,2.90
2018-06-14T00:29:34.195Z,3.10
2018-06-14T00:32:02.656Z,3.00
2018-06-14T00:34:30.962Z,2.80
2018-06-14T00:36:59.285Z,2.90
2018-06-14T00:39:27.631Z,2.80
2018-06-14T00:41:55.947Z,2.80
2018-06-14T00:44:24.263Z,2.90
2018-06-14T00:46:52.560Z,2.67
2018-06-14T00:49:20.821Z,2.50
2018-06-14T00:51:49.236Z,2.77
2018-06-14T00:54:17.780Z,2.70
2018-06-14T00:56:57.249Z,2.90
2018-06-14T00:59:25.600Z,2.50
2018-06-14T01:01:53.904Z,3.03
2018-06-14T01:04:22.243Z,3.00
2018-06-14T01:06:50.576Z,3.00
2018-06-14T01:09:18.906Z,2.77
2018-06-14T01:11:47.307Z,2.70
2018-06-14T01:14:15.671Z,2.57
2018-06-14T01:16:43.975Z,3.10
2018-06-14T01:19:12.276Z,2.97
2018-06-14T01:21:40.601Z,3.17
2018-06-14T01:24:09.130Z,2.90
2018-06-14T01:26:37.476Z,3.50
2018-06-14T01:29:05.591Z,2.83
2018-06-14T01:31:33.891Z,3.40
2018-06-14T01:34:02.176Z,3.40
2018-06-14T01:36:30.540Z,3.40
2018-06-14T01:38:58.845Z,3.20
2018-06-14T01:41:26.867Z,2.97
2018-06-14T01:43:55.236Z,3.10
2018-06-14T01:46:23.631Z,3.30
2018-06-14T01:48:51.927Z,2.93
2018-06-14T01:51:20.270Z,2.77
2018-06-14T01:53:48.586Z,3.27
2018-06-14T01:56:17.680Z,2.90
2018-06-14T01:58:46.059Z,3.10
2018-06-14T02:01:14.372Z,3.00
2018-06-14T02:03:42.651Z,3.57
2018-06-14T02:06:10.996Z,3.03
2018-06-14T02:08:39.279Z,3.00
2018-06-14T02:11:07.699Z,3.57
2018-06-14T02:13:36.075Z,3.50
2018-06-14T02:16:06.977Z,3.03
2018-06-14T02:18:35.709Z,3.20
2018-06-14T02:21:04.054Z,3.60
2018-06-14T02:23:32.461Z,3.20
2018-06-14T02:26:00.904Z,3.70
2018-06-14T02:28:29.375Z,3.30
2018-06-14T02:30:57.805Z,3.53
2018-06-14T02:33:26.162Z,3.77
2018-06-14T02:35:54.562Z,3.37
2018-06-14T02:38:24.128Z,3.50
2018-06-14T02:40:53.230Z,4.00
2018-06-14T02:43:21.659Z,3.63
2018-06-14T02:45:50.123Z,3.10
2018-06-14T02:48:18.484Z,3.53
2018-06-14T02:50:46.783Z,3.80
2018-06-14T02:53:17.884Z,3.77
2018-06-14T02:55:46.809Z,3.53
2018-06-14T02:58:15.173Z,4.00
2018-06-14T03:00:43.532Z,3.90
2018-06-14T03:03:12.071Z,4.03
2018-06-14T03:05:40.457Z,4.47
2018-06-14T03:08:08.828Z,3.80
2018-06-14T03:10:37.216Z,4.00
2018-06-14T03:13:05.592Z,3.73
2018-06-14T03:15:33.925Z,3.93
2018-06-14T03:18:02.236Z,4.00
2018-06-14T03:20:30.766Z,3.97
2018-06-14T03:22:59.128Z,4.47
2018-06-14T03:25:27.440Z,4.07
2018-06-14T03:27:55.822Z,4.10
2018-06-14T03:30:24.136Z,4.00
2018-06-14T03:32:54.299Z,3.83
2018-06-14T03:35:22.613Z,4.20
2018-06-14T03:37:51.003Z,4.10
2018-06-14T03:40:19.299Z,4.30
2018-06-14T03:42:47.652Z,3.63
2018-06-14T03:45:20.132Z,3.87
2018-06-14T03:47:49.969Z,4.20
2018-06-14T03:50:18.316Z,4.20
2018-06-14T03:52:46.604Z,5.80
2018-06-14T03:55:14.975Z,4.30
2018-06-14T03:57:43.371Z,4.20
2018-06-14T04:00:12.506Z,4.30
2018-06-14T04:02:40.827Z,4.40
2018-06-14T04:05:09.208Z,4.70
2018-06-14T04:07:37.545Z,4.77
2018-06-14T04:10:05.972Z,4.23
2018-06-14T04:12:34.301Z,4.83
2018-06-14T04:15:02.718Z,4.73
2018-06-14T04:17:31.051Z,4.70
2018-06-14T04:19:59.380Z,4.83
2018-06-14T04:22:27.717Z,4.50
2018-06-14T04:24:56.097Z,4.50
2018-06-14T04:27:25.304Z,4.90
2018-06-14T04:29:53.779Z,4.60
2018-06-14T04:32:22.088Z,4.80
2018-06-14T04:34:50.384Z,4.97
2018-06-14T04:37:18.725Z,4.73
2018-06-14T04:39:47.044Z,5.07
2018-06-14T04:42:15.368Z,6.20
2018-06-14T04:44:43.651Z,5.90
2018-06-14T04:47:11.964Z,5.50
2018-06-14T04:49:40.282Z,5.10
2018-06-14T04:52:08.609Z,5.27
2018-06-14T04:54:37.052Z,5.13
2018-06-14T04:57:05.124Z,5.40
2018-06-14T04:59:33.568Z,5.07
2018-06-14T05:02:01.944Z,5.20
2018-06-14T05:04:30.304Z,5.00
2018-06-14T05:06:58.680Z,5.90
2018-06-14T05:09:27.059Z,6.27
2018-06-14T05:11:55.445Z,5.53
2018-06-14T05:14:23.776Z,4.87
2018-06-14T05:16:52.143Z,4.67
2018-06-14T05:19:20.468Z,5.30
2018-06-14T05:21:48.806Z,4.90
2018-06-14T05:24:16.831Z,5.40
2018-06-14T05:26:45.192Z,5.40
2018-06-14T05:29:13.564Z,4.87
2018-06-14T05:31:41.984Z,5.00
2018-06-14T05:34:10.342Z,5.37
2018-06-14T05:36:39.618Z,5.27
2018-06-14T05:39:09.972Z,5.17
2018-06-14T05:41:38.829Z,4.73
2018-06-14T05:44:07.280Z,4.90
2018-06-14T05:46:35.698Z,5.67
2018-06-14T05:49:04.547Z,5.20
2018-06-14T05:51:32.883Z,5.90
2018-06-14T05:54:01.461Z,5.17
2018-06-14T05:56:29.816Z,5.33
2018-06-14T05:58:58.148Z,5.47
2018-06-14T06:01:26.580Z,6.20
2018-06-14T06:03:54.925Z,4.93
2018-06-14T06:06:23.261Z,4.80
2018-06-14T06:08:51.583Z,4.87
2018-06-14T06:11:19.983Z,5.07
2018-06-14T06:13:48.007Z,5.30
2018-06-14T06:16:16.380Z,5.00
2018-06-14T06:18:44.732Z,6.77
2018-06-14T06:21:13.093Z,4.47
2018-06-14T06:23:41.495Z,4.93
2018-06-14T06:26:09.979Z,4.63
2018-06-14T06:28:39.164Z,4.73
2018-06-14T06:31:07.797Z,5.50
2018-06-14T06:33:36.128Z,4.93
2018-06-14T06:36:04.470Z,5.17
2018-06-14T06:38:33.093Z,4.77
2018-06-14T06:41:01.424Z,5.00
2018-06-14T06:43:29.748Z,4.77
2018-06-14T06:45:58.089Z,4.70
2018-06-14T06:48:26.413Z,4.70
2018-06-14T06:50:54.718Z,5.27
2018-06-14T06:53:23.095Z,4.40
2018-06-14T06:55:51.104Z,4.80
2018-06-14T06:58:19.420Z,4.70
2018-06-14T07:00:47.476Z,4.87
2018-06-14T07:03:16.369Z,4.70
2018-06-14T07:05:44.847Z,5.87
2018-06-14T07:08:13.266Z,4.63
2018-06-14T07:10:41.611Z,5.43
2018-06-14T07:13:09.912Z,6.27
2018-06-14T07:15:38.248Z,5.53
2018-06-14T07:18:06.684Z,5.17
2018-06-14T07:20:35.454Z,4.90
2018-06-14T07:23:03.828Z,4.93
2018-06-14T07:25:32.420Z,5.20
2018-06-14T07:28:00.731Z,4.60
2018-06-14T07:30:29.804Z,4.70
2018-06-14T07:32:58.276Z,5.27
2018-06-14T07:35:26.612Z,5.03
2018-06-14T07:37:54.971Z,5.10
2018-06-14T07:40:23.283Z,5.53
2018-06-14T07:42:51.603Z,5.00
2018-06-14T07:45:20.128Z,5.63
2018-06-14T07:47:49.455Z,5.07
2018-06-14T07:50:17.761Z,5.33
2018-06-14T07:52:46.127Z,5.00
2018-06-14T07:55:14.491Z,4.80
2018-06-14T07:57:42.823Z,4.67
2018-06-14T08:00:11.157Z,4.70
2018-06-14T08:02:39.535Z,5.20
2018-06-14T08:05:08.030Z,5.23
2018-06-14T08:07:36.401Z,6.27
2018-06-14T08:10:04.752Z,5.07
2018-06-14T08:12:33.105Z,6.20
2018-06-14T08:15:01.421Z,7.13
2018-06-14T08:17:29.768Z,5.97
2018-06-14T08:19:58.071Z,5.73
2018-06-14T08:22:26.428Z,5.90
2018-06-14T08:24:54.708Z,5.40
2018-06-14T08:27:23.032Z,5.83
2018-06-14T08:29:51.433Z,5.77
2018-06-14T08:32:19.817Z,6.17
2018-06-14T08:34:48.147Z,5.80
2018-06-14T08:37:16.574Z,6.33
2018-06-14T08:39:45.104Z,6.50
2018-06-14T08:42:13.551Z,7.03
2018-06-14T08:44:41.950Z,6.60
2018-06-14T08:47:11.015Z,6.70
2018-06-14T08:49:42.356Z,6.03
2018-06-14T08:52:11.025Z,5.97
2018-06-14T08:54:39.360Z,6.30
2018-06-14T08:57:07.875Z,6.20
2018-06-14T08:59:36.208Z,6.13
2018-06-14T09:02:04.613Z,7.33
2018-06-14T09:04:32.964Z,5.57
2018-06-14T09:07:01.292Z,6.47
2018-06-14T09:09:29.941Z,6.20
2018-06-14T09:11:58.536Z,6.10
2018-06-14T09:14:26.858Z,6.10
2018-06-14T09:16:55.275Z,6.93
2018-06-14T09:19:23.582Z,6.77
2018-06-14T09:21:51.904Z,6.20
2018-06-14T09:24:20.236Z,5.90
2018-06-14T09:26:48.657Z,6.57
2018-06-14T09:29:17.005Z,5.77
2018-06-14T09:31:45.343Z,4.87
2018-06-14T09:34:13.792Z,5.80
2018-06-14T09:36:42.096Z,5.40
2018-06-14T09:39:10.888Z,5.63
2018-06-14T09:41:39.747Z,5.67
2018-06-14T09:44:08.137Z,5.47
2018-06-14T09:46:36.532Z,5.13
2018-06-14T09:49:09.287Z,5.90
2018-06-14T09:51:38.245Z,5.33
2018-06-14T09:54:07.017Z,4.70
2018-06-14T09:56:35.111Z,6.13
2018-06-14T09:59:03.426Z,4.50
2018-06-14T10:01:31.776Z,5.20
2018-06-14T10:04:00.140Z,4.67
2018-06-14T10:06:28.599Z,4.93
2018-06-14T10:08:58.472Z,4.87
2018-06-14T10:11:26.836Z,5.87
2018-06-14T10:13:55.180Z,6.53
2018-06-14T10:16:23.942Z,5.60
2018-06-14T10:18:52.464Z,5.10
2018-06-14T10:21:20.945Z,5.83
2018-06-14T10:23:49.257Z,5.30
2018-06-14T10:26:18.424Z,5.00
2018-06-14T10:28:48.372Z,6.27
2018-06-14T10:31:16.685Z,6.13
2018-06-14T10:33:45.041Z,5.67
2018-06-14T10:36:13.518Z,5.50
2018-06-14T10:38:42.131Z,6.07
2018-06-14T10:41:10.491Z,6.60
2018-06-14T10:43:38.910Z,6.37
2018-06-14T10:46:08.213Z,5.83
2018-06-14T10:48:36.632Z,5.53
2018-06-14T10:51:04.980Z,5.50
2018-06-14T10:53:33.390Z,4.73
2018-06-14T10:56:01.736Z,5.30
2018-06-14T10:58:30.870Z,5.10
2018-06-14T11:01:00.785Z,4.90
2018-06-14T11:03:29.971Z,5.33
2018-06-14T11:05:59.055Z,4.50
2018-06-14T11:08:27.424Z,4.37
2018-06-14T11:10:55.832Z,7.00
2018-06-14T11:13:24.217Z,5.17
2018-06-14T11:15:52.693Z,5.57
2018-06-14T11:18:21.100Z,5.33
2018-06-14T11:20:49.470Z,4.83
2018-06-14T11:23:17.895Z,5.00
2018-06-14T11:25:46.379Z,4.77
2018-06-14T11:28:15.123Z,4.80
2018-06-14T11:30:43.475Z,4.10
2018-06-14T11:33:11.829Z,5.10
2018-06-14T11:35:40.176Z,3.97
2018-06-14T11:38:08.710Z,4.63
2018-06-14T11:40:37.193Z,4.57
2018-06-14T11:43:05.524Z,3.80
2018-06-14T11:45:34.248Z,4.10
2018-06-14T11:48:02.564Z,4.20
2018-06-14T11:50:30.903Z,3.83
2018-06-14T11:52:59.220Z,4.10
2018-06-14T11:55:27.894Z,3.87
2018-06-14T11:57:56.229Z,4.20
2018-06-14T12:00:24.561Z,3.87
2018-06-14T12:02:53.124Z,3.70
2018-06-14T12:05:21.485Z,4.00
2018-06-14T12:07:49.837Z,3.50
2018-06-14T12:10:18.162Z,3.90
2018-06-14T12:12:46.473Z,3.90
2018-06-14T12:15:15.031Z,4.57
2018-06-14T12:17:43.948Z,4.45
2018-06-14T12:20:12.296Z,3.90
2018-06-14T12:22:40.384Z,3.75
2018-06-14T12:25:08.678Z,4.30
2018-06-14T12:27:36.986Z,3.52
2018-06-14T12:30:05.316Z,3.30
2018-06-14T12:32:33.668Z,3.20
2018-06-14T12:35:01.721Z,3.67
2018-06-14T12:37:30.056Z,3.87
2018-06-14T12:39:58.364Z,4.45
2018-06-14T12:42:26.666Z,4.20
2018-06-14T12:44:54.727Z,4.03
2018-06-14T12:47:23.079Z,4.10
2018-06-14T12:49:51.508Z,3.83
2018-06-14T12:52:19.946Z,3.95
2018-06-14T12:54:48.260Z,4.50
2018-06-14T12:57:16.561Z,4.53
2018-06-14T12:59:44.883Z,4.03
2018-06-14T13:02:13.434Z,4.58
2018-06-14T13:04:42.085Z,4.80
2018-06-14T13:07:11.835Z,4.83
2018-06-14T13:09:40.449Z,5.45
2018-06-14T13:12:08.524Z,5.30
2018-06-14T13:14:36.867Z,5.30
2018-06-14T13:17:05.165Z,5.92
2018-06-14T13:19:33.449Z,5.72
2018-06-14T13:22:01.848Z,6.28
2018-06-14T13:24:36.647Z,5.70
2018-06-14T13:27:05.005Z,6.75
2018-06-14T13:29:33.328Z,6.17
2018-06-14T13:32:01.689Z,5.87
2018-06-14T13:34:30.030Z,5.87
2018-06-14T13:36:58.361Z,6.10
2018-06-14T13:39:26.783Z,5.83
2018-06-14T13:41:57.355Z,5.40
2018-06-14T13:44:25.726Z,6.47
2018-06-14T13:46:54.048Z,5.87
2018-06-14T13:49:22.415Z,5.33
2018-06-14T13:51:50.950Z,5.62
2018-06-14T13:54:20.167Z,5.37
2018-06-14T13:56:48.653Z,5.08
2018-06-14T13:59:16.968Z,5.30
2018-06-14T14:01:45.349Z,5.40
2018-06-14T14:04:13.664Z,4.67
2018-06-14T14:06:42.000Z,4.57
2018-06-14T14:09:11.669Z,5.20
2018-06-14T14:11:40.147Z,5.53
2018-06-14T14:14:08.472Z,4.73
2018-06-14T14:16:36.952Z,4.77
2018-06-14T14:19:05.308Z,4.90
2018-06-14T14:21:33.651Z,4.30
2018-06-14T14:24:01.969Z,4.40
2018-06-14T14:26:30.292Z,5.70
2018-06-14T14:28:58.608Z,4.40
2018-06-14T14:31:26.961Z,4.67
2018-06-14T14:33:55.406Z,4.40
2018-06-14T14:36:23.681Z,4.00
2018-06-14T14:38:51.712Z,4.37
2018-06-14T14:41:20.076Z,5.30
2018-06-14T14:43:48.424Z,4.33
2018-06-14T14:46:16.788Z,4.33
2018-06-14T14:48:44.831Z,4.50
2018-06-14T14:51:13.132Z,4.40
2018-06-14T14:53:41.464Z,4.63
2018-06-14T14:56:09.849Z,4.53
2018-06-14T14:58:38.244Z,4.13
2018-06-14T15:01:06.548Z,3.93
2018-06-14T15:03:34.856Z,4.63
2018-06-14T15:06:03.200Z,4.77
2018-06-14T15:08:31.516Z,4.10
2018-06-14T15:10:59.828Z,5.93
2018-06-14T15:13:28.131Z,5.57
2018-06-14T15:15:56.820Z,5.07
2018-06-14T15:18:25.257Z,4.10
2018-06-14T15:20:53.694Z,3.40
2018-06-14T15:23:22.017Z,4.13
2018-06-14T15:25:50.332Z,4.20
2018-06-14T15:28:18.816Z,6.53
2018-06-14T15:30:47.095Z,4.50
2018-06-14T15:33:15.416Z,4.20
2018-06-14T15:35:43.708Z,3.80
2018-06-14T15:38:12.063Z,4.13
2018-06-14T15:40:40.464Z,4.70
2018-06-14T15:43:08.812Z,5.03
2018-06-14T15:45:37.140Z,4.20
2018-06-14T15:48:05.512Z,4.80
2018-06-14T15:50:33.880Z,4.70
2018-06-14T15:53:02.425Z,4.63
2018-06-14T15:56:12.790Z,4.80
2018-06-14T15:58:41.150Z,4.80
2018-06-14T16:01:09.444Z,4.43
2018-06-14T16:03:37.781Z,4.80
2018-06-14T16:06:06.100Z,4.27
2018-06-14T16:08:34.404Z,5.80
2018-06-14T16:11:02.812Z,4.43
2018-06-14T16:13:31.136Z,5.20
2018-06-14T16:15:59.515Z,4.90
2018-06-14T16:18:27.848Z,5.37
2018-06-14T16:20:56.204Z,5.23
2018-06-14T16:23:24.550Z,4.90
2018-06-14T16:25:52.835Z,4.60
2018-06-14T16:28:21.161Z,6.07
2018-06-14T16:30:49.516Z,5.20
2018-06-14T16:33:17.843Z,5.43
2018-06-14T16:35:46.228Z,5.00
2018-06-14T16:38:14.577Z,5.90
2018-06-14T16:40:42.735Z,5.40
2018-06-14T16:43:11.201Z,5.53
2018-06-14T16:45:39.639Z,5.00
2018-06-14T16:48:07.956Z,5.90
2018-06-14T16:50:36.236Z,5.67
2018-06-14T16:53:04.807Z,5.50
2018-06-14T16:55:33.152Z,5.80
2018-06-14T16:58:01.585Z,7.20
2018-06-14T17:00:30.134Z,7.10
2018-06-14T17:02:58.471Z,9.97
2018-06-14T17:05:26.804Z,14.60
2018-06-14T17:07:55.104Z,16.30
2018-06-14T17:10:23.417Z,17.97
2018-06-14T17:12:52.007Z,21.97
2018-06-14T17:15:20.576Z,22.43
2018-06-14T17:17:48.708Z,25.73
2018-06-14T17:20:17.040Z,27.87
2018-06-14T17:22:45.364Z,29.50
2018-06-14T17:25:13.772Z,33.53
2018-06-14T17:27:42.131Z,34.50
2018-06-14T17:30:10.540Z,36.70
2018-06-14T17:32:38.788Z,34.63
2018-06-14T17:35:07.311Z,34.50
2018-06-14T17:37:35.680Z,37.23
2018-06-14T17:40:04.112Z,36.90
2018-06-14T17:42:32.411Z,34.97
2018-06-14T17:45:00.784Z,36.70
2018-06-14T17:47:29.104Z,34.03
2018-06-14T17:49:57.420Z,33.23
2018-06-14T17:52:25.760Z,36.87
2018-06-14T17:54:54.135Z,35.30
2018-06-14T17:57:22.470Z,33.87
2018-06-14T17:59:50.844Z,33.87
2018-06-14T18:02:19.257Z,35.27
2018-06-14T18:04:47.624Z,36.17
2018-06-14T18:07:15.980Z,37.57
2018-06-14T18:09:44.412Z,34.03
2018-06-14T18:12:12.819Z,35.50
2018-06-14T18:14:41.178Z,37.30
2018-06-14T18:17:09.579Z,34.43
2018-06-14T18:19:37.896Z,35.27
2018-06-14T18:22:06.180Z,35.83
2018-06-14T18:24:34.503Z,35.93
2018-06-14T18:27:02.928Z,33.53
2018-06-14T18:29:31.288Z,33.03
2018-06-14T18:31:59.360Z,34.77
2018-06-14T18:34:27.705Z,34.57
2018-06-14T18:36:56.099Z,39.33
2018-06-14T18:39:24.459Z,33.10
2018-06-14T18:41:52.796Z,35.20
2018-06-14T18:44:21.152Z,32.40
2018-06-14T18:46:49.514Z,31.83
2018-06-14T18:49:24.259Z,32.57
2018-06-14T18:51:52.595Z,34.73
2018-06-14T18:54:20.992Z,31.50
2018-06-14T18:56:49.350Z,33.73
2018-06-14T18:59:17.692Z,32.17
2018-06-14T19:01:46.007Z,31.87
2018-06-14T19:04:14.275Z,30.93
2018-06-14T19:06:42.627Z,31.67
2018-06-14T19:09:11.451Z,30.80
2018-06-14T19:11:41.119Z,31.33
2018-06-14T19:14:09.856Z,29.23
2018-06-14T19:16:38.168Z,30.20
2018-06-14T19:19:06.496Z,27.27
2018-06-14T19:21:34.867Z,28.50
2018-06-14T19:24:03.225Z,27.20
2018-06-14T19:26:31.595Z,28.07
2018-06-14T19:28:59.906Z,27.53
2018-06-14T19:31:28.290Z,28.83
2018-06-14T19:33:56.631Z,29.27
2018-06-14T19:36:25.008Z,26.60
2018-06-14T19:38:53.330Z,26.97
2018-06-14T19:41:21.630Z,32.70
2018-06-14T19:43:50.157Z,26.47
2018-06-14T19:46:18.484Z,25.47
2018-06-14T19:48:46.849Z,28.60
2018-06-14T19:51:15.220Z,24.87
2018-06-14T19:53:43.511Z,27.10
2018-06-14T19:56:11.844Z,25.80
2018-06-14T19:58:40.127Z,24.77
2018-06-14T20:01:08.576Z,26.03
2018-06-14T20:03:36.856Z,24.90
2018-06-14T20:06:05.320Z,25.13
2018-06-14T20:08:33.664Z,24.07
2018-06-14T20:11:01.993Z,23.67
2018-06-14T20:13:30.357Z,25.13
2018-06-14T20:15:58.727Z,23.50
2018-06-14T20:18:27.042Z,26.40
2018-06-14T20:20:55.517Z,22.47
2018-06-14T20:23:23.806Z,25.07
2018-06-14T20:25:52.157Z,23.23
2018-06-14T20:28:20.327Z,22.27
2018-06-14T20:30:48.673Z,21.50
2018-06-14T20:33:17.028Z,23.77
2018-06-14T20:35:45.456Z,22.07
2018-06-14T20:38:13.812Z,21.20
2018-06-14T20:40:42.152Z,21.83
2018-06-14T20:43:10.576Z,23.07
2018-06-14T20:45:38.965Z,22.50
2018-06-14T20:48:07.260Z,20.67
2018-06-14T20:50:35.339Z,23.27
2018-06-14T20:53:03.684Z,21.13
2018-06-14T20:55:32.068Z,22.37
2018-06-14T20:58:00.397Z,21.17
2018-06-14T21:00:29.113Z,19.80
2018-06-14T21:02:57.404Z,18.60
2018-06-14T21:05:25.703Z,18.67
2018-06-14T21:07:54.011Z,20.30
2018-06-14T21:10:22.328Z,19.37
2018-06-14T21:12:50.635Z,19.57
2018-06-14T21:15:18.983Z,18.33
2018-06-14T21:17:47.361Z,19.60
2018-06-14T21:20:15.672Z,19.77
2018-06-14T21:22:43.981Z,19.73
2018-06-14T21:25:12.404Z,19.97
2018-06-14T21:27:40.753Z,20.30
2018-06-14T21:30:09.172Z,20.47
2018-06-14T21:32:37.508Z,20.07
2018-06-14T21:35:06.220Z,20.10
2018-06-14T21:37:34.573Z,19.50
2018-06-14T21:40:02.990Z,20.83
2018-06-14T21:42:31.348Z,20.90
2018-06-14T21:44:59.651Z,21.37
2018-06-14T21:47:27.985Z,20.23
2018-06-14T21:49:56.308Z,21.67
2018-06-14T21:52:24.661Z,20.83
2018-06-14T21:54:52.975Z,21.27
2018-06-14T21:57:21.336Z,21.23
2018-06-14T21:59:49.756Z,21.10
2018-06-14T22:02:18.052Z,21.37
2018-06-14T22:04:46.416Z,21.43
2018-06-14T22:07:15.091Z,22.07
2018-06-14T22:09:44.440Z,22.63
2018-06-14T22:12:13.201Z,23.27
2018-06-14T22:14:41.568Z,24.07
2018-06-14T22:17:10.599Z,22.90
2018-06-14T22:19:39.025Z,23.50
2018-06-14T22:22:07.482Z,24.13
2018-06-14T22:24:36.112Z,23.03
2018-06-14T22:27:04.699Z,24.50
2018-06-14T22:29:33.032Z,24.37
2018-06-14T22:32:01.378Z,24.83
2018-06-14T22:34:40.868Z,25.93
2018-06-14T22:37:09.220Z,25.83
2018-06-14T22:39:37.527Z,24.17
2018-06-14T22:42:05.890Z,25.97
2018-06-14T22:44:34.213Z,24.90
2018-06-14T22:47:02.573Z,25.13
2018-06-14T22:49:30.940Z,24.70
2018-06-14T22:53:09.240Z,25.77
2018-06-14T22:55:37.647Z,25.80
2018-06-14T22:58:05.967Z,25.03
2018-06-14T23:01:45.101Z,25.70
2018-06-14T23:04:23.912Z,26.27
2018-06-14T23:06:52.392Z,25.80
2018-06-14T23:10:32.559Z,26.93
2018-06-14T23:13:00.956Z,27.70
2018-06-14T23:15:29.316Z,26.33
2018-06-14T23:17:57.796Z,26.83
2018-06-14T23:20:27.156Z,27.13
2018-06-14T23:22:56.460Z,26.90
2018-06-14T23:25:25.585Z,25.97
2018-06-14T23:27:53.940Z,27.57
2018-06-14T23:30:22.236Z,26.20
2018-06-14T23:32:50.836Z,27.20
2018-06-14T23:35:19.406Z,26.17
2018-06-14T23:37:47.772Z,25.57
2018-06-14T23:40:16.143Z,26.53
2018-06-14T23:42:44.548Z,25.97
2018-06-14T23:45:12.820Z,26.77
2018-06-14T23:47:41.131Z,25.00
2018-06-14T23:50:09.546Z,27.17
2018-06-14T23:52:44.307Z,26.37
2018-06-14T23:55:12.619Z,25.10
2018-06-14T23:57:40.945Z,26.07
